sensor_id;sensor_type;location;lat;lon;timestamp;temperature;humidity
7447;DHT22;3765;47.962;7.952;2023-04-16T00:01:01;9.20;73.30
7447;DHT22;3765;47.962;7.952;2023-04-16T00:03:29;9.10;73.30
7447;DHT22;3765;47.962;7.952;2023-04-16T00:05:58;9.10;73.50
7447;DHT22;3765;47.962;7.952;2023-04-16T00:08:26;9.00;73.70
7447;DHT22;3765;47.962;7.952;2023-04-16T00:10:54;8.90;73.60
7447;DHT22;3765;47.962;7.952;2023-04-16T00:13:22;8.90;74.10
7447;DHT22;3765;47.962;7.952;2023-04-16T00:15:53;8.90;74.20
7447;DHT22;3765;47.962;7.952;2023-04-16T00:18:21;8.80;74.40
7447;DHT22;3765;47.962;7.952;2023-04-16T00:20:50;8.80;74.60
7447;DHT22;3765;47.962;7.952;2023-04-16T00:23:19;8.80;74.70
7447;DHT22;3765;47.962;7.952;2023-04-16T00:25:47;8.80;74.70
7447;DHT22;3765;47.962;7.952;2023-04-16T00:28:15;8.70;74.80
7447;DHT22;3765;47.962;7.952;2023-04-16T00:30:44;8.80;75.20
7447;DHT22;3765;47.962;7.952;2023-04-16T00:33:13;8.80;75.30
7447;DHT22;3765;47.962;7.952;2023-04-16T00:35:44;8.70;75.30
7447;DHT22;3765;47.962;7.952;2023-04-16T00:38:12;8.70;75.50
7447;DHT22;3765;47.962;7.952;2023-04-16T00:40:41;8.70;75.70
7447;DHT22;3765;47.962;7.952;2023-04-16T00:43:09;8.60;75.60
7447;DHT22;3765;47.962;7.952;2023-04-16T00:45:37;8.70;75.70
7447;DHT22;3765;47.962;7.952;2023-04-16T00:48:05;8.70;75.80
7447;DHT22;3765;47.962;7.952;2023-04-16T00:50:35;8.60;75.90
7447;DHT22;3765;47.962;7.952;2023-04-16T00:53:04;8.60;76.20
7447;DHT22;3765;47.962;7.952;2023-04-16T00:55:33;8.60;76.30
7447;DHT22;3765;47.962;7.952;2023-04-16T00:58:02;8.60;76.20
7447;DHT22;3765;47.962;7.952;2023-04-16T01:00:30;8.60;76.30
7447;DHT22;3765;47.962;7.952;2023-04-16T01:02:59;8.60;76.30
7447;DHT22;3765;47.962;7.952;2023-04-16T01:05:27;8.60;76.40
7447;DHT22;3765;47.962;7.952;2023-04-16T01:07:59;8.70;76.60
7447;DHT22;3765;47.962;7.952;2023-04-16T01:10:27;8.80;76.50
7447;DHT22;3765;47.962;7.952;2023-04-16T01:12:55;8.70;76.40
7447;DHT22;3765;47.962;7.952;2023-04-16T01:15:23;8.70;76.50
7447;DHT22;3765;47.962;7.952;2023-04-16T01:17:52;8.70;76.60
7447;DHT22;3765;47.962;7.952;2023-04-16T01:20:20;8.70;76.50
7447;DHT22;3765;47.962;7.952;2023-04-16T01:22:50;8.60;76.70
7447;DHT22;3765;47.962;7.952;2023-04-16T01:25:18;8.60;76.80
7447;DHT22;3765;47.962;7.952;2023-04-16T01:27:48;8.70;77.00
7447;DHT22;3765;47.962;7.952;2023-04-16T01:30:16;8.70;77.00
7447;DHT22;3765;47.962;7.952;2023-04-16T01:32:45;8.80;76.80
7447;DHT22;3765;47.962;7.952;2023-04-16T01:35:13;8.70;77.00
7447;DHT22;3765;47.962;7.952;2023-04-16T01:37:44;8.70;76.90
7447;DHT22;3765;47.962;7.952;2023-04-16T01:40:13;8.70;77.00
7447;DHT22;3765;47.962;7.952;2023-04-16T01:42:42;8.70;77.00
7447;DHT22;3765;47.962;7.952;2023-04-16T01:45:10;8.60;76.90
7447;DHT22;3765;47.962;7.952;2023-04-16T01:47:39;8.80;77.30
7447;DHT22;3765;47.962;7.952;2023-04-16T01:50:08;8.70;77.00
7447;DHT22;3765;47.962;7.952;2023-04-16T01:52:36;8.70;77.10
7447;DHT22;3765;47.962;7.952;2023-04-16T01:55:05;8.80;77.10
7447;DHT22;3765;47.962;7.952;2023-04-16T01:57:35;8.80;77.10
7447;DHT22;3765;47.962;7.952;2023-04-16T02:00:04;8.80;77.00
7447;DHT22;3765;47.962;7.952;2023-04-16T02:02:33;8.80;77.00
7447;DHT22;3765;47.962;7.952;2023-04-16T02:05:02;8.80;77.00
7447;DHT22;3765;47.962;7.952;2023-04-16T02:07:30;8.90;76.80
7447;DHT22;3765;47.962;7.952;2023-04-16T02:09:58;8.90;76.70
7447;DHT22;3765;47.962;7.952;2023-04-16T02:12:27;8.90;76.90
7447;DHT22;3765;47.962;7.952;2023-04-16T02:14:56;8.90;76.90
7447;DHT22;3765;47.962;7.952;2023-04-16T02:17:24;8.90;77.00
7447;DHT22;3765;47.962;7.952;2023-04-16T02:19:53;8.90;76.90
7447;DHT22;3765;47.962;7.952;2023-04-16T02:22:21;8.80;77.00
7447;DHT22;3765;47.962;7.952;2023-04-16T02:24:52;8.80;77.10
7447;DHT22;3765;47.962;7.952;2023-04-16T02:27:20;8.80;77.00
7447;DHT22;3765;47.962;7.952;2023-04-16T02:29:48;8.80;77.10
7447;DHT22;3765;47.962;7.952;2023-04-16T02:32:18;8.90;77.10
7447;DHT22;3765;47.962;7.952;2023-04-16T02:34:46;8.90;77.20
7447;DHT22;3765;47.962;7.952;2023-04-16T02:37:15;8.90;77.10
7447;DHT22;3765;47.962;7.952;2023-04-16T02:39:43;8.80;77.10
7447;DHT22;3765;47.962;7.952;2023-04-16T02:42:13;8.90;77.30
7447;DHT22;3765;47.962;7.952;2023-04-16T02:44:42;9.00;77.10
7447;DHT22;3765;47.962;7.952;2023-04-16T02:47:10;9.00;77.10
7447;DHT22;3765;47.962;7.952;2023-04-16T02:49:39;8.90;77.00
7447;DHT22;3765;47.962;7.952;2023-04-16T02:52:07;8.90;77.10
7447;DHT22;3765;47.962;7.952;2023-04-16T02:54:35;8.80;77.00
7447;DHT22;3765;47.962;7.952;2023-04-16T02:57:04;8.80;77.20
7447;DHT22;3765;47.962;7.952;2023-04-16T02:59:32;8.80;77.10
7447;DHT22;3765;47.962;7.952;2023-04-16T03:02:00;8.70;77.20
7447;DHT22;3765;47.962;7.952;2023-04-16T03:04:28;8.70;77.40
7447;DHT22;3765;47.962;7.952;2023-04-16T03:06:58;8.70;77.50
7447;DHT22;3765;47.962;7.952;2023-04-16T03:09:26;8.80;77.60
7447;DHT22;3765;47.962;7.952;2023-04-16T03:11:54;8.80;77.60
7447;DHT22;3765;47.962;7.952;2023-04-16T03:14:23;8.80;77.60
7447;DHT22;3765;47.962;7.952;2023-04-16T03:16:51;8.80;77.60
7447;DHT22;3765;47.962;7.952;2023-04-16T03:19:19;8.90;77.60
7447;DHT22;3765;47.962;7.952;2023-04-16T03:21:47;8.90;77.40
7447;DHT22;3765;47.962;7.952;2023-04-16T03:24:17;8.80;77.60
7447;DHT22;3765;47.962;7.952;2023-04-16T03:26:45;8.80;77.50
7447;DHT22;3765;47.962;7.952;2023-04-16T03:29:13;8.80;77.70
7447;DHT22;3765;47.962;7.952;2023-04-16T03:31:41;8.80;77.60
7447;DHT22;3765;47.962;7.952;2023-04-16T03:34:09;8.80;77.60
7447;DHT22;3765;47.962;7.952;2023-04-16T03:36:37;8.80;77.90
7447;DHT22;3765;47.962;7.952;2023-04-16T03:39:06;8.70;77.80
7447;DHT22;3765;47.962;7.952;2023-04-16T03:41:36;8.80;77.90
7447;DHT22;3765;47.962;7.952;2023-04-16T03:44:04;8.80;77.80
7447;DHT22;3765;47.962;7.952;2023-04-16T03:46:32;8.70;77.80
7447;DHT22;3765;47.962;7.952;2023-04-16T03:49:00;8.80;77.80
7447;DHT22;3765;47.962;7.952;2023-04-16T03:51:29;8.80;77.70
7447;DHT22;3765;47.962;7.952;2023-04-16T03:53:57;8.80;77.60
7447;DHT22;3765;47.962;7.952;2023-04-16T03:56:25;8.80;77.70
7447;DHT22;3765;47.962;7.952;2023-04-16T03:58:55;8.80;77.70
7447;DHT22;3765;47.962;7.952;2023-04-16T04:01:23;8.80;77.70
7447;DHT22;3765;47.962;7.952;2023-04-16T04:03:51;8.90;77.70
7447;DHT22;3765;47.962;7.952;2023-04-16T04:06:19;8.90;77.50
7447;DHT22;3765;47.962;7.952;2023-04-16T04:08:47;8.80;77.50
7447;DHT22;3765;47.962;7.952;2023-04-16T04:11:16;8.80;77.60
7447;DHT22;3765;47.962;7.952;2023-04-16T04:13:44;8.90;77.60
7447;DHT22;3765;47.962;7.952;2023-04-16T04:16:14;8.80;77.60
7447;DHT22;3765;47.962;7.952;2023-04-16T04:18:42;8.90;77.50
7447;DHT22;3765;47.962;7.952;2023-04-16T04:21:10;8.90;77.60
7447;DHT22;3765;47.962;7.952;2023-04-16T04:23:39;8.90;77.50
7447;DHT22;3765;47.962;7.952;2023-04-16T04:26:08;8.90;77.60
7447;DHT22;3765;47.962;7.952;2023-04-16T04:28:36;8.90;77.60
7447;DHT22;3765;47.962;7.952;2023-04-16T04:31:04;8.90;77.70
7447;DHT22;3765;47.962;7.952;2023-04-16T04:33:34;8.80;77.70
7447;DHT22;3765;47.962;7.952;2023-04-16T04:36:02;8.90;77.80
7447;DHT22;3765;47.962;7.952;2023-04-16T04:38:30;8.90;77.60
7447;DHT22;3765;47.962;7.952;2023-04-16T04:40:58;9.00;77.70
7447;DHT22;3765;47.962;7.952;2023-04-16T04:43:27;8.90;77.50
7447;DHT22;3765;47.962;7.952;2023-04-16T04:45:55;8.90;77.50
7447;DHT22;3765;47.962;7.952;2023-04-16T04:48:23;8.90;77.60
7447;DHT22;3765;47.962;7.952;2023-04-16T04:50:54;8.80;77.50
7447;DHT22;3765;47.962;7.952;2023-04-16T04:53:22;8.80;77.50
7447;DHT22;3765;47.962;7.952;2023-04-16T04:55:50;8.70;77.40
7447;DHT22;3765;47.962;7.952;2023-04-16T04:58:24;8.80;77.60
7447;DHT22;3765;47.962;7.952;2023-04-16T05:00:52;8.80;77.50
7447;DHT22;3765;47.962;7.952;2023-04-16T05:03:20;8.80;77.50
7447;DHT22;3765;47.962;7.952;2023-04-16T05:05:49;8.70;77.70
7447;DHT22;3765;47.962;7.952;2023-04-16T05:08:18;8.70;77.70
7447;DHT22;3765;47.962;7.952;2023-04-16T05:10:46;8.80;77.80
7447;DHT22;3765;47.962;7.952;2023-04-16T05:13:15;8.80;77.70
7447;DHT22;3765;47.962;7.952;2023-04-16T05:15:43;8.90;77.60
7447;DHT22;3765;47.962;7.952;2023-04-16T05:18:11;8.90;77.60
7447;DHT22;3765;47.962;7.952;2023-04-16T05:20:39;8.90;77.50
7447;DHT22;3765;47.962;7.952;2023-04-16T05:23:07;9.00;77.40
7447;DHT22;3765;47.962;7.952;2023-04-16T05:25:37;9.00;77.30
7447;DHT22;3765;47.962;7.952;2023-04-16T05:28:05;8.90;77.20
7447;DHT22;3765;47.962;7.952;2023-04-16T05:30:33;8.90;77.40
7447;DHT22;3765;47.962;7.952;2023-04-16T05:33:02;9.00;77.40
7447;DHT22;3765;47.962;7.952;2023-04-16T05:35:30;8.90;77.50
7447;DHT22;3765;47.962;7.952;2023-04-16T05:37:58;8.90;77.50
7447;DHT22;3765;47.962;7.952;2023-04-16T05:40:26;8.90;77.50
7447;DHT22;3765;47.962;7.952;2023-04-16T05:42:56;8.90;77.60
7447;DHT22;3765;47.962;7.952;2023-04-16T05:45:24;8.90;77.50
7447;DHT22;3765;47.962;7.952;2023-04-16T05:47:53;8.90;77.60
7447;DHT22;3765;47.962;7.952;2023-04-16T05:50:22;8.90;77.50
7447;DHT22;3765;47.962;7.952;2023-04-16T05:52:50;8.90;77.60
7447;DHT22;3765;47.962;7.952;2023-04-16T05:55:18;8.90;77.50
7447;DHT22;3765;47.962;7.952;2023-04-16T05:57:46;8.90;77.70
7447;DHT22;3765;47.962;7.952;2023-04-16T06:00:16;8.80;77.80
7447;DHT22;3765;47.962;7.952;2023-04-16T06:02:45;8.80;77.80
7447;DHT22;3765;47.962;7.952;2023-04-16T06:05:13;8.90;77.90
7447;DHT22;3765;47.962;7.952;2023-04-16T06:07:41;8.90;77.80
7447;DHT22;3765;47.962;7.952;2023-04-16T06:10:10;8.90;77.70
7447;DHT22;3765;47.962;7.952;2023-04-16T06:12:38;8.80;77.80
7447;DHT22;3765;47.962;7.952;2023-04-16T06:15:07;8.70;78.00
7447;DHT22;3765;47.962;7.952;2023-04-16T06:17:37;8.70;78.10
7447;DHT22;3765;47.962;7.952;2023-04-16T06:20:06;8.60;78.30
7447;DHT22;3765;47.962;7.952;2023-04-16T06:22:35;8.60;78.30
7447;DHT22;3765;47.962;7.952;2023-04-16T06:25:04;8.60;78.40
7447;DHT22;3765;47.962;7.952;2023-04-16T06:27:32;8.60;78.40
7447;DHT22;3765;47.962;7.952;2023-04-16T06:30:00;8.50;78.50
7447;DHT22;3765;47.962;7.952;2023-04-16T06:32:29;8.50;78.80
7447;DHT22;3765;47.962;7.952;2023-04-16T06:34:58;8.50;78.60
7447;DHT22;3765;47.962;7.952;2023-04-16T06:37:27;8.50;79.00
7447;DHT22;3765;47.962;7.952;2023-04-16T06:39:55;8.60;78.90
7447;DHT22;3765;47.962;7.952;2023-04-16T06:42:23;8.60;78.90
7447;DHT22;3765;47.962;7.952;2023-04-16T06:44:51;8.60;79.00
7447;DHT22;3765;47.962;7.952;2023-04-16T06:47:19;8.60;79.20
7447;DHT22;3765;47.962;7.952;2023-04-16T06:49:47;8.50;79.10
7447;DHT22;3765;47.962;7.952;2023-04-16T06:52:17;8.50;79.30
7447;DHT22;3765;47.962;7.952;2023-04-16T06:54:46;8.40;79.30
7447;DHT22;3765;47.962;7.952;2023-04-16T06:57:15;8.40;79.60
7447;DHT22;3765;47.962;7.952;2023-04-16T06:59:43;8.50;79.40
7447;DHT22;3765;47.962;7.952;2023-04-16T07:02:11;8.40;79.60
7447;DHT22;3765;47.962;7.952;2023-04-16T07:04:39;8.40;79.70
7447;DHT22;3765;47.962;7.952;2023-04-16T07:07:07;8.50;79.70
7447;DHT22;3765;47.962;7.952;2023-04-16T07:09:37;8.60;79.80
7447;DHT22;3765;47.962;7.952;2023-04-16T07:12:05;8.50;79.80
7447;DHT22;3765;47.962;7.952;2023-04-16T07:14:34;8.50;80.10
7447;DHT22;3765;47.962;7.952;2023-04-16T07:17:02;8.60;80.10
7447;DHT22;3765;47.962;7.952;2023-04-16T07:19:30;8.60;79.90
7447;DHT22;3765;47.962;7.952;2023-04-16T07:21:59;8.70;80.20
7447;DHT22;3765;47.962;7.952;2023-04-16T07:24:27;8.80;80.20
7447;DHT22;3765;47.962;7.952;2023-04-16T07:26:56;8.80;80.10
7447;DHT22;3765;47.962;7.952;2023-04-16T07:29:24;8.80;80.00
7447;DHT22;3765;47.962;7.952;2023-04-16T07:31:53;8.80;80.00
7447;DHT22;3765;47.962;7.952;2023-04-16T07:34:21;8.80;80.20
7447;DHT22;3765;47.962;7.952;2023-04-16T07:36:49;8.90;80.20
7447;DHT22;3765;47.962;7.952;2023-04-16T07:39:17;8.80;80.10
7447;DHT22;3765;47.962;7.952;2023-04-16T07:41:46;8.90;80.20
7447;DHT22;3765;47.962;7.952;2023-04-16T07:44:15;8.90;80.20
7447;DHT22;3765;47.962;7.952;2023-04-16T07:46:44;8.90;80.20
7447;DHT22;3765;47.962;7.952;2023-04-16T07:49:13;8.80;80.20
7447;DHT22;3765;47.962;7.952;2023-04-16T07:51:42;8.80;80.00
7447;DHT22;3765;47.962;7.952;2023-04-16T07:54:10;8.80;80.20
7447;DHT22;3765;47.962;7.952;2023-04-16T07:56:38;8.90;80.40
7447;DHT22;3765;47.962;7.952;2023-04-16T07:59:06;9.00;80.50
7447;DHT22;3765;47.962;7.952;2023-04-16T08:01:51;9.00;80.40
7447;DHT22;3765;47.962;7.952;2023-04-16T08:04:20;9.10;80.30
7447;DHT22;3765;47.962;7.952;2023-04-16T08:06:51;9.10;80.30
7447;DHT22;3765;47.962;7.952;2023-04-16T08:09:22;9.10;80.30
7447;DHT22;3765;47.962;7.952;2023-04-16T08:11:50;9.20;80.30
7447;DHT22;3765;47.962;7.952;2023-04-16T08:14:19;9.20;80.10
7447;DHT22;3765;47.962;7.952;2023-04-16T08:16:50;9.10;80.20
7447;DHT22;3765;47.962;7.952;2023-04-16T08:19:18;9.00;80.20
7447;DHT22;3765;47.962;7.952;2023-04-16T08:21:47;9.00;80.20
7447;DHT22;3765;47.962;7.952;2023-04-16T08:24:15;9.20;80.20
7447;DHT22;3765;47.962;7.952;2023-04-16T08:26:44;9.20;80.30
7447;DHT22;3765;47.962;7.952;2023-04-16T08:29:12;9.20;80.20
7447;DHT22;3765;47.962;7.952;2023-04-16T08:31:40;9.20;80.00
7447;DHT22;3765;47.962;7.952;2023-04-16T08:34:10;9.20;79.80
7447;DHT22;3765;47.962;7.952;2023-04-16T08:36:39;9.30;80.00
7447;DHT22;3765;47.962;7.952;2023-04-16T08:39:07;9.30;79.90
7447;DHT22;3765;47.962;7.952;2023-04-16T08:41:37;9.20;79.70
7447;DHT22;3765;47.962;7.952;2023-04-16T08:44:08;9.00;79.70
7447;DHT22;3765;47.962;7.952;2023-04-16T08:46:40;9.00;79.90
7447;DHT22;3765;47.962;7.952;2023-04-16T08:49:14;9.00;80.10
7447;DHT22;3765;47.962;7.952;2023-04-16T08:51:49;9.10;80.10
7447;DHT22;3765;47.962;7.952;2023-04-16T08:54:30;9.10;79.90
7447;DHT22;3765;47.962;7.952;2023-04-16T08:56:59;9.20;80.00
7447;DHT22;3765;47.962;7.952;2023-04-16T08:59:31;9.20;79.90
7447;DHT22;3765;47.962;7.952;2023-04-16T09:01:59;9.30;79.90
7447;DHT22;3765;47.962;7.952;2023-04-16T09:04:31;9.30;79.80
7447;DHT22;3765;47.962;7.952;2023-04-16T09:07:00;9.20;79.70
7447;DHT22;3765;47.962;7.952;2023-04-16T09:09:30;9.30;80.00
7447;DHT22;3765;47.962;7.952;2023-04-16T09:12:00;9.30;80.00
7447;DHT22;3765;47.962;7.952;2023-04-16T09:14:28;9.30;79.80
7447;DHT22;3765;47.962;7.952;2023-04-16T09:16:57;9.30;79.70
7447;DHT22;3765;47.962;7.952;2023-04-16T09:19:29;9.20;79.70
7447;DHT22;3765;47.962;7.952;2023-04-16T09:21:57;9.20;79.90
7447;DHT22;3765;47.962;7.952;2023-04-16T09:24:26;9.20;79.90
7447;DHT22;3765;47.962;7.952;2023-04-16T09:26:55;9.10;79.70
7447;DHT22;3765;47.962;7.952;2023-04-16T09:29:33;9.10;79.90
7447;DHT22;3765;47.962;7.952;2023-04-16T09:32:03;8.90;79.70
7447;DHT22;3765;47.962;7.952;2023-04-16T09:34:34;8.90;80.10
7447;DHT22;3765;47.962;7.952;2023-04-16T09:37:16;9.00;80.20
7447;DHT22;3765;47.962;7.952;2023-04-16T09:39:53;9.00;80.20
7447;DHT22;3765;47.962;7.952;2023-04-16T09:42:23;9.00;80.20
7447;DHT22;3765;47.962;7.952;2023-04-16T09:44:53;9.10;79.90
7447;DHT22;3765;47.962;7.952;2023-04-16T09:47:37;9.10;80.10
7447;DHT22;3765;47.962;7.952;2023-04-16T09:50:09;9.30;80.30
7447;DHT22;3765;47.962;7.952;2023-04-16T09:52:38;9.30;80.20
7447;DHT22;3765;47.962;7.952;2023-04-16T09:55:07;9.30;80.00
7447;DHT22;3765;47.962;7.952;2023-04-16T09:57:36;9.40;80.00
7447;DHT22;3765;47.962;7.952;2023-04-16T10:00:06;9.40;79.80
7447;DHT22;3765;47.962;7.952;2023-04-16T10:02:35;9.40;79.80
7447;DHT22;3765;47.962;7.952;2023-04-16T10:05:07;9.40;79.70
7447;DHT22;3765;47.962;7.952;2023-04-16T10:07:36;9.40;79.80
7447;DHT22;3765;47.962;7.952;2023-04-16T10:10:05;9.30;79.80
7447;DHT22;3765;47.962;7.952;2023-04-16T10:12:33;9.30;79.70
7447;DHT22;3765;47.962;7.952;2023-04-16T10:15:02;9.20;79.60
7447;DHT22;3765;47.962;7.952;2023-04-16T10:17:30;9.20;79.90
7447;DHT22;3765;47.962;7.952;2023-04-16T10:19:59;9.10;79.80
7447;DHT22;3765;47.962;7.952;2023-04-16T10:22:30;9.10;79.90
7447;DHT22;3765;47.962;7.952;2023-04-16T10:24:58;9.10;80.10
7447;DHT22;3765;47.962;7.952;2023-04-16T10:27:27;9.10;80.20
7447;DHT22;3765;47.962;7.952;2023-04-16T10:29:56;9.10;80.20
7447;DHT22;3765;47.962;7.952;2023-04-16T10:32:25;9.10;80.30
7447;DHT22;3765;47.962;7.952;2023-04-16T10:34:54;9.10;80.30
7447;DHT22;3765;47.962;7.952;2023-04-16T10:37:29;9.20;80.30
7447;DHT22;3765;47.962;7.952;2023-04-16T10:39:58;9.20;80.30
7447;DHT22;3765;47.962;7.952;2023-04-16T10:42:26;9.10;80.20
7447;DHT22;3765;47.962;7.952;2023-04-16T10:44:58;9.10;80.30
7447;DHT22;3765;47.962;7.952;2023-04-16T10:47:28;9.20;80.50
7447;DHT22;3765;47.962;7.952;2023-04-16T10:49:57;9.30;80.40
7447;DHT22;3765;47.962;7.952;2023-04-16T10:52:29;9.40;80.30
7447;DHT22;3765;47.962;7.952;2023-04-16T10:54:58;9.30;80.20
7447;DHT22;3765;47.962;7.952;2023-04-16T10:57:28;9.30;80.20
7447;DHT22;3765;47.962;7.952;2023-04-16T10:59:56;9.40;80.20
7447;DHT22;3765;47.962;7.952;2023-04-16T11:02:27;9.30;80.10
7447;DHT22;3765;47.962;7.952;2023-04-16T11:04:56;9.30;80.30
7447;DHT22;3765;47.962;7.952;2023-04-16T11:07:33;9.30;80.10
7447;DHT22;3765;47.962;7.952;2023-04-16T11:10:03;9.30;80.30
7447;DHT22;3765;47.962;7.952;2023-04-16T11:12:34;9.30;80.30
7447;DHT22;3765;47.962;7.952;2023-04-16T11:15:05;9.30;80.30
7447;DHT22;3765;47.962;7.952;2023-04-16T11:17:36;9.30;80.40
7447;DHT22;3765;47.962;7.952;2023-04-16T11:20:07;9.40;80.40
7447;DHT22;3765;47.962;7.952;2023-04-16T11:22:48;9.40;80.40
7447;DHT22;3765;47.962;7.952;2023-04-16T11:25:20;9.50;80.30
7447;DHT22;3765;47.962;7.952;2023-04-16T11:27:49;9.60;80.30
7447;DHT22;3765;47.962;7.952;2023-04-16T11:30:18;9.60;80.20
7447;DHT22;3765;47.962;7.952;2023-04-16T11:32:54;9.70;80.10
7447;DHT22;3765;47.962;7.952;2023-04-16T11:35:23;9.70;80.10
7447;DHT22;3765;47.962;7.952;2023-04-16T11:37:55;9.60;80.10
7447;DHT22;3765;47.962;7.952;2023-04-16T11:40:23;9.60;80.10
7447;DHT22;3765;47.962;7.952;2023-04-16T11:42:51;9.60;80.10
7447;DHT22;3765;47.962;7.952;2023-04-16T11:45:20;9.70;80.10
7447;DHT22;3765;47.962;7.952;2023-04-16T11:47:49;9.80;80.20
7447;DHT22;3765;47.962;7.952;2023-04-16T11:50:20;9.90;80.00
7447;DHT22;3765;47.962;7.952;2023-04-16T11:52:49;10.10;79.70
7447;DHT22;3765;47.962;7.952;2023-04-16T11:55:19;10.20;79.80
7447;DHT22;3765;47.962;7.952;2023-04-16T11:57:48;10.30;79.40
7447;DHT22;3765;47.962;7.952;2023-04-16T12:00:18;10.30;79.30
7447;DHT22;3765;47.962;7.952;2023-04-16T12:02:51;10.30;79.00
7447;DHT22;3765;47.962;7.952;2023-04-16T12:05:27;10.30;79.00
7447;DHT22;3765;47.962;7.952;2023-04-16T12:08:00;10.50;79.20
7447;DHT22;3765;47.962;7.952;2023-04-16T12:10:32;10.60;78.90
7447;DHT22;3765;47.962;7.952;2023-04-16T12:13:11;10.40;78.00
7447;DHT22;3765;47.962;7.952;2023-04-16T12:15:43;10.30;78.40
7447;DHT22;3765;47.962;7.952;2023-04-16T12:18:15;10.30;78.40
7447;DHT22;3765;47.962;7.952;2023-04-16T12:20:43;10.30;78.20
7447;DHT22;3765;47.962;7.952;2023-04-16T12:23:22;10.10;77.70
7447;DHT22;3765;47.962;7.952;2023-04-16T12:25:52;10.10;78.00
7447;DHT22;3765;47.962;7.952;2023-04-16T12:28:28;10.00;77.70
7447;DHT22;3765;47.962;7.952;2023-04-16T12:30:56;10.00;77.60
7447;DHT22;3765;47.962;7.952;2023-04-16T12:33:25;10.10;77.80
7447;DHT22;3765;47.962;7.952;2023-04-16T12:35:53;10.10;77.20
7447;DHT22;3765;47.962;7.952;2023-04-16T12:38:21;10.10;77.40
7447;DHT22;3765;47.962;7.952;2023-04-16T12:40:52;10.00;77.10
7447;DHT22;3765;47.962;7.952;2023-04-16T12:43:23;9.80;77.00
7447;DHT22;3765;47.962;7.952;2023-04-16T12:45:51;9.90;77.20
7447;DHT22;3765;47.962;7.952;2023-04-16T12:48:19;10.00;77.20
7447;DHT22;3765;47.962;7.952;2023-04-16T12:50:48;9.90;77.00
7447;DHT22;3765;47.962;7.952;2023-04-16T12:53:16;9.90;77.00
7447;DHT22;3765;47.962;7.952;2023-04-16T12:55:44;9.90;77.10
7447;DHT22;3765;47.962;7.952;2023-04-16T12:58:13;9.90;77.10
7447;DHT22;3765;47.962;7.952;2023-04-16T13:00:42;9.90;77.20
7447;DHT22;3765;47.962;7.952;2023-04-16T13:03:10;10.00;77.10
7447;DHT22;3765;47.962;7.952;2023-04-16T13:05:39;10.00;77.10
7447;DHT22;3765;47.962;7.952;2023-04-16T13:08:07;10.10;77.10
7447;DHT22;3765;47.962;7.952;2023-04-16T13:10:35;10.10;77.00
7447;DHT22;3765;47.962;7.952;2023-04-16T13:13:04;10.10;77.00
7447;DHT22;3765;47.962;7.952;2023-04-16T13:15:34;10.20;77.00
7447;DHT22;3765;47.962;7.952;2023-04-16T13:18:02;10.20;77.00
7447;DHT22;3765;47.962;7.952;2023-04-16T13:20:30;10.10;77.00
7447;DHT22;3765;47.962;7.952;2023-04-16T13:22:59;10.20;77.00
7447;DHT22;3765;47.962;7.952;2023-04-16T13:25:30;10.10;76.80
7447;DHT22;3765;47.962;7.952;2023-04-16T13:27:58;10.00;76.80
7447;DHT22;3765;47.962;7.952;2023-04-16T13:30:27;10.00;76.80
7447;DHT22;3765;47.962;7.952;2023-04-16T13:32:57;10.00;77.00
7447;DHT22;3765;47.962;7.952;2023-04-16T13:35:25;10.00;77.00
7447;DHT22;3765;47.962;7.952;2023-04-16T13:37:54;10.10;77.00
7447;DHT22;3765;47.962;7.952;2023-04-16T13:40:22;10.00;76.90
7447;DHT22;3765;47.962;7.952;2023-04-16T13:42:50;9.90;76.90
7447;DHT22;3765;47.962;7.952;2023-04-16T13:45:18;9.80;77.00
7447;DHT22;3765;47.962;7.952;2023-04-16T13:47:47;9.90;77.30
7447;DHT22;3765;47.962;7.952;2023-04-16T13:50:17;9.90;77.30
7447;DHT22;3765;47.962;7.952;2023-04-16T13:52:45;10.10;77.20
7447;DHT22;3765;47.962;7.952;2023-04-16T13:55:13;10.10;77.00
7447;DHT22;3765;47.962;7.952;2023-04-16T13:57:45;9.90;77.00
7447;DHT22;3765;47.962;7.952;2023-04-16T14:00:14;10.10;77.30
7447;DHT22;3765;47.962;7.952;2023-04-16T14:02:43;10.30;77.20
7447;DHT22;3765;47.962;7.952;2023-04-16T14:05:16;10.30;77.00
7447;DHT22;3765;47.962;7.952;2023-04-16T14:07:45;10.30;76.90
7447;DHT22;3765;47.962;7.952;2023-04-16T14:10:13;10.30;76.70
7447;DHT22;3765;47.962;7.952;2023-04-16T14:12:42;10.30;76.80
7447;DHT22;3765;47.962;7.952;2023-04-16T14:15:10;10.20;76.40
7447;DHT22;3765;47.962;7.952;2023-04-16T14:17:41;10.20;76.80
7447;DHT22;3765;47.962;7.952;2023-04-16T14:20:11;10.10;76.70
7447;DHT22;3765;47.962;7.952;2023-04-16T14:22:41;10.10;76.80
7447;DHT22;3765;47.962;7.952;2023-04-16T14:25:09;10.10;76.70
7447;DHT22;3765;47.962;7.952;2023-04-16T14:27:38;10.00;76.40
7447;DHT22;3765;47.962;7.952;2023-04-16T14:30:07;10.10;76.70
7447;DHT22;3765;47.962;7.952;2023-04-16T14:32:35;10.10;76.80
7447;DHT22;3765;47.962;7.952;2023-04-16T14:35:04;10.10;76.70
7447;DHT22;3765;47.962;7.952;2023-04-16T14:37:34;10.10;76.80
7447;DHT22;3765;47.962;7.952;2023-04-16T14:40:07;10.10;77.00
7447;DHT22;3765;47.962;7.952;2023-04-16T14:42:36;10.10;77.10
7447;DHT22;3765;47.962;7.952;2023-04-16T14:45:05;10.20;77.10
7447;DHT22;3765;47.962;7.952;2023-04-16T14:47:34;10.10;77.20
7447;DHT22;3765;47.962;7.952;2023-04-16T14:50:04;10.20;77.30
7447;DHT22;3765;47.962;7.952;2023-04-16T14:52:32;10.10;77.30
7447;DHT22;3765;47.962;7.952;2023-04-16T14:55:00;10.10;77.10
7447;DHT22;3765;47.962;7.952;2023-04-16T14:57:30;10.20;77.30
7447;DHT22;3765;47.962;7.952;2023-04-16T14:59:59;10.40;77.40
7447;DHT22;3765;47.962;7.952;2023-04-16T15:02:27;10.40;77.10
7447;DHT22;3765;47.962;7.952;2023-04-16T15:04:55;10.30;77.00
7447;DHT22;3765;47.962;7.952;2023-04-16T15:07:23;10.30;77.00
7447;DHT22;3765;47.962;7.952;2023-04-16T15:09:52;10.20;77.30
7447;DHT22;3765;47.962;7.952;2023-04-16T15:12:20;10.30;77.40
7447;DHT22;3765;47.962;7.952;2023-04-16T15:14:49;10.30;77.30
7447;DHT22;3765;47.962;7.952;2023-04-16T15:17:19;10.30;77.30
7447;DHT22;3765;47.962;7.952;2023-04-16T15:19:47;10.30;77.10
7447;DHT22;3765;47.962;7.952;2023-04-16T15:22:17;10.30;77.10
7447;DHT22;3765;47.962;7.952;2023-04-16T15:24:46;10.20;77.00
7447;DHT22;3765;47.962;7.952;2023-04-16T15:27:14;10.30;77.10
7447;DHT22;3765;47.962;7.952;2023-04-16T15:29:43;10.30;76.80
7447;DHT22;3765;47.962;7.952;2023-04-16T15:32:13;10.20;77.00
7447;DHT22;3765;47.962;7.952;2023-04-16T15:34:41;10.20;77.00
7447;DHT22;3765;47.962;7.952;2023-04-16T15:37:10;10.20;77.00
7447;DHT22;3765;47.962;7.952;2023-04-16T15:39:38;10.10;77.10
7447;DHT22;3765;47.962;7.952;2023-04-16T15:42:06;10.10;77.10
7447;DHT22;3765;47.962;7.952;2023-04-16T15:44:35;10.10;77.20
7447;DHT22;3765;47.962;7.952;2023-04-16T15:47:03;10.10;77.30
7447;DHT22;3765;47.962;7.952;2023-04-16T15:49:33;10.20;77.20
7447;DHT22;3765;47.962;7.952;2023-04-16T15:52:02;10.20;77.30
7447;DHT22;3765;47.962;7.952;2023-04-16T15:54:30;10.20;77.30
7447;DHT22;3765;47.962;7.952;2023-04-16T15:56:58;10.10;77.30
7447;DHT22;3765;47.962;7.952;2023-04-16T15:59:27;10.10;77.50
7447;DHT22;3765;47.962;7.952;2023-04-16T16:01:55;10.10;77.60
7447;DHT22;3765;47.962;7.952;2023-04-16T16:04:24;10.20;77.70
7447;DHT22;3765;47.962;7.952;2023-04-16T16:06:55;10.20;77.80
7447;DHT22;3765;47.962;7.952;2023-04-16T16:09:23;10.20;77.70
7447;DHT22;3765;47.962;7.952;2023-04-16T16:11:52;10.30;77.70
7447;DHT22;3765;47.962;7.952;2023-04-16T16:14:21;10.30;77.70
7447;DHT22;3765;47.962;7.952;2023-04-16T16:16:50;10.20;77.90
7447;DHT22;3765;47.962;7.952;2023-04-16T16:19:18;10.30;77.90
7447;DHT22;3765;47.962;7.952;2023-04-16T16:21:46;10.30;77.70
7447;DHT22;3765;47.962;7.952;2023-04-16T16:24:15;10.20;77.70
7447;DHT22;3765;47.962;7.952;2023-04-16T16:26:44;10.00;77.40